Portada
METAR-TAF:

METAR-TAF

Aeroports :

Marion County Regional Airport

Flippin, Arkansas, Estats Units d'Amèrica

latitud: 36-18N, longitud: 092-28W, altitud: 350 m

Observació

L'informe es va fer fa 21 minuts, a les 22:56 UTC
Vent 6 kt del Sud/Sud-Oest amb ràfegues de 14 kt
Temperatura 29°C
Humitat 55%
Pressió 1012 hPa
Visibilitat: 16.1 km
Cel ennuvolat a una alçada de 4100 ft
Cel ennuvolat a una alçada de 5000 ft

METAR: KFLP 242256Z AUTO 20006G14KT 10SM BKN041 BKN050 29/19 A2987 RMK AO2 LTG DSNT W AND NW TSE02 SLP107 T02890194

Hora: 18:17 (23:17 UTC)


TAF: manca

Observacions i pronòstics meteorològics de més de 4000 aeroports (METAR i TAF).

Les estacions disponibles són els punts grocs i vermells al mapa.

Posi el ratolí al punt desitjat per veure el nom de l'estació.

Feu clic per veure les observacions i els pronòstics meteorològics.

Per canviar el mapa: feu clic els botons verds amb una creu de color negre per apropar; al botó verd amb un guió per allunyar la imatge; o en les fletxes verdes per a mapes adjacents.


METAR-TAF: